Fry, Arizona
Current Conditions -  °F | °C
As of 3:55 AM on Friday 31 Oct 2014 (Local Time) from KFHU Reporting Station
Scattered Clouds Scattered Clouds  
Wind Chill: 61°   Ceiling: Unl
Heat Index: 61°   Visibility: 10mi
Dew Point: 37°   Wind: 8mph
Humidity: 42%   Direction: 150°SSE
Pressure: 30.12"   Gusts: NA
Location:  31.5289°N, 110.258°W
Report Text: KFHU 311055Z 15007KT 10SM FEW170 SCT260 16/03 A3012 RMK SLP144
Loading
Personal Weather Stations






























Interactive Weather Map New forecast layout! Learn more

10-Day Weather Forecast

Advertisements
Track Severe Weather on mobile